Time;durP1;ratioP1;P1;durP2;ratioP2;P2;SDS_P1;SDS_P2;PMS_P1;PMS_P2;Temp;Humidity;BMP_temperature;BMP_pressure;BME280_temperature;BME280_humidity;BME280_pressure;Samples;Min_cycle;Max_cycle;Signal;HPM_P1;HPM_P2
2022/11/20 00:00:55;;;;;;;1.60;1.35;;;;;;;19.99;63.34;97807.16;2086381;28;20052;-72
2022/11/20 00:01:57;;;;;;;;;;;;;;;19.86;63.54;97805.47;2092680;28;20059;-72
2022/11/20 00:02:57;;;;;;;2.03;1.10;;;;;;;19.92;63.52;97809.97;2092028;28;19935;-72
2022/11/20 00:03:59;;;;;;;2.40;1.83;;;;;;;19.96;63.06;97810.31;2092131;28;20293;-71
2022/11/20 00:05:00;;;;;;;3.78;1.13;;;;;;;20.00;63.02;97808.78;2089569;28;20151;-75
2022/11/20 00:06:02;;;;;;;3.28;1.23;;;;;;;20.03;63.17;97805.63;2088098;28;20056;-73
2022/11/20 00:07:04;;;;;;;2.33;1.23;;;;;;;20.01;62.82;97805.06;2078316;28;20060;-73
2022/11/20 00:08:05;;;;;;;3.95;1.55;;;;;;;20.01;63.12;97813.13;2087042;28;20047;-74
2022/11/20 00:09:07;;;;;;;1.38;1.10;;;;;;;20.01;62.89;97813.94;2089786;28;20429;-71
2022/11/20 00:10:08;;;;;;;1.17;0.90;;;;;;;20.00;62.85;97809.63;2090489;28;20052;-72
2022/11/20 00:11:14;;;;;;;3.35;1.33;;;;;;;20.01;63.01;97808.56;2086222;28;20041;-74
2022/11/20 00:12:15;;;;;;;2.58;1.33;;;;;;;19.98;62.92;97809.03;2090250;28;20120;-72
2022/11/20 00:13:17;;;;;;;3.78;1.70;;;;;;;19.97;63.30;97814.63;2086280;28;20651;-72
2022/11/20 00:14:18;;;;;;;1.80;1.25;;;;;;;19.97;62.90;97814.63;2091267;28;20535;-73
2022/11/20 00:15:20;;;;;;;;;;;;;;;19.85;63.21;97812.75;2090536;28;20059;-72
2022/11/20 00:16:21;;;;;;;;;;;;;;;19.72;63.50;97807.56;2089819;28;20035;-71
2022/11/20 00:17:23;;;;;;;3.72;1.05;;;;;;;19.80;63.70;97818.00;2086085;28;20015;-74
2022/11/20 00:18:24;;;;;;;3.03;1.05;;;;;;;19.88;63.10;97813.34;2086244;28;20110;-74
2022/11/20 00:19:26;;;;;;;2.75;1.15;;;;;;;19.90;63.29;97812.06;2088488;28;20052;-73
2022/11/20 00:20:26;;;;;;;1.48;1.20;;;;;;;19.91;63.05;97811.00;2087478;28;20724;-73
2022/11/20 00:21:29;;;;;;;;;;;;;;;19.79;63.53;97816.38;2089358;28;20069;-73
2022/11/20 00:22:30;;;;;;;1.17;0.75;;;;;;;19.82;63.16;97820.47;2089270;28;19955;-73
2022/11/20 00:23:31;;;;;;;;;;;;;;;19.72;63.49;97815.63;2086082;28;20044;-73
2022/11/20 00:24:32;;;;;;;1.65;0.82;;;;;;;19.78;63.55;97822.81;2089081;28;19924;-73
2022/11/20 00:25:34;;;;;;;;;;;;;;;19.69;63.39;97813.41;2090530;28;20266;-72
2022/11/20 00:26:38;;;;;;;1.70;0.90;;;;;;;19.78;63.26;97821.97;2088742;28;19925;-72
2022/11/20 00:27:39;;;;;;;1.58;1.45;;;;;;;19.82;63.23;97823.97;2084120;28;20040;-73
2022/11/20 00:28:40;;;;;;;;;;;;;;;19.70;63.43;97825.00;2088618;28;20487;-72
2022/11/20 00:29:41;;;;;;;4.85;1.65;;;;;;;19.76;63.39;97819.50;2091207;28;19920;-72
2022/11/20 00:30:43;;;;;;;;;;;;;;;19.69;63.54;97823.34;2085722;28;20052;-72
2022/11/20 00:31:43;;;;;;;;;;;;;;;19.60;63.64;97818.28;2088819;28;19940;-75
2022/11/20 00:32:45;;;;;;;2.30;1.40;;;;;;;19.70;63.57;97822.31;2092375;28;19928;-72
2022/11/20 00:33:46;;;;;;;1.42;0.98;;;;;;;19.74;63.62;97823.50;2088691;28;20110;-72
2022/11/20 00:34:48;;;;;;;1.70;1.05;;;;;;;19.78;63.00;97820.13;2090529;28;20190;-72
2022/11/20 00:35:49;;;;;;;2.80;1.08;;;;;;;19.80;63.17;97818.00;2089388;28;20123;-73
2022/11/20 00:36:50;;;;;;;;;;;;;;;19.71;63.48;97824.75;2086860;28;20056;-75
2022/11/20 00:37:51;;;;;;;1.17;0.85;;;;;;;19.72;63.42;97821.00;2084792;28;20539;-77
2022/11/20 00:38:53;;;;;;;;;;;;;;;19.64;63.86;97824.03;2082546;28;20075;-73
2022/11/20 00:39:54;;;;;;;4.75;1.20;;;;;;;19.75;63.56;97825.97;2086195;28;19929;-71
2022/11/20 00:40:57;;;;;;;;;;;;;;;19.72;63.85;97825.56;2085134;28;20121;-72
2022/11/20 00:41:59;;;;;;;11.18;2.22;;;;;;;19.83;63.70;97822.09;2083984;28;19934;-72
2022/11/20 00:43:01;;;;;;;9.15;1.52;;;;;;;19.91;63.25;97829.03;2087010;28;20056;-72
2022/11/20 00:44:02;;;;;;;13.57;2.10;;;;;;;19.94;62.94;97823.16;2087721;28;20537;-72
2022/11/20 00:45:03;;;;;;;;;;;;;;;19.86;63.51;97829.69;2085134;28;20048;-73
2022/11/20 00:46:06;;;;;;;6.95;1.90;;;;;;;19.89;63.51;97833.81;2086239;28;19928;-73
2022/11/20 00:47:08;;;;;;;5.53;1.52;;;;;;;19.91;63.13;97834.41;2088663;28;20636;-72
2022/11/20 00:48:08;;;;;;;5.45;1.17;;;;;;;19.90;63.31;97830.91;2088131;28;20112;-72
2022/11/20 00:49:10;;;;;;;;;;;;;;;19.79;63.55;97821.75;2088857;28;20113;-72
2022/11/20 00:50:11;;;;;;;6.97;1.73;;;;;;;19.84;63.71;97831.81;2090282;28;19935;-73
2022/11/20 00:51:14;;;;;;;10.43;2.05;;;;;;;19.86;63.53;97819.78;2087134;28;20049;-72
2022/11/20 00:52:15;;;;;;;9.15;1.38;;;;;;;19.90;63.24;97819.31;2091129;28;20040;-72
2022/11/20 00:53:16;;;;;;;;;;;;;;;19.78;63.75;97824.66;2089485;28;20415;-71
2022/11/20 00:54:17;;;;;;;3.45;1.23;;;;;;;19.81;63.73;97825.03;2088284;28;19924;-71
2022/11/20 00:55:19;;;;;;;5.15;0.93;;;;;;;19.83;63.80;97824.78;2087807;28;21352;-72
2022/11/20 00:56:19;;;;;;;6.22;1.48;;;;;;;19.85;63.65;97828.88;2091278;28;20561;-72
2022/11/20 00:57:22;;;;;;;;;;;;;;;19.75;63.75;97823.28;2089551;28;20147;-72
2022/11/20 00:58:28;;;;;;;3.45;1.30;;;;;;;19.79;63.63;97826.31;2088752;28;19931;-72
2022/11/20 00:59:29;;;;;;;5.38;0.80;;;;;;;19.80;63.60;97830.63;2088996;28;20072;-72
2022/11/20 01:00:30;;;;;;;11.88;1.80;;;;;;;19.84;63.58;97829.94;2086534;28;20044;-72
2022/11/20 01:01:32;;;;;;;;;;;;;;;19.71;64.25;97822.06;2090995;28;20521;-73
2022/11/20 01:02:32;;;;;;;;;;;;;;;19.63;64.23;97822.38;2088693;28;19924;-72
2022/11/20 01:03:35;;;;;;;3.72;1.65;;;;;;;19.69;63.97;97826.03;2089842;28;19925;-72
2022/11/20 01:04:35;;;;;;;8.98;1.77;;;;;;;19.74;64.19;97829.69;2087303;28;20056;-73
2022/11/20 01:05:37;;;;;;;;;;;;;;;19.67;64.27;97834.34;2089312;28;20388;-72
2022/11/20 01:06:39;;;;;;;6.10;1.42;;;;;;;19.73;64.01;97827.25;2087082;28;20054;-72
2022/11/20 01:07:41;;;;;;;2.08;1.10;;;;;;;19.74;64.01;97827.00;2088180;28;20049;-72
2022/11/20 01:08:42;;;;;;;4.63;1.25;;;;;;;19.77;64.08;97829.22;2087139;28;20179;-73
2022/11/20 01:09:44;;;;;;;5.35;1.33;;;;;;;19.81;63.72;97827.72;2087446;28;20079;-72
2022/11/20 01:10:44;;;;;;;4.45;1.08;;;;;;;19.81;63.79;97826.91;2093589;28;20098;-72
2022/11/20 01:11:46;;;;;;;;;;;;;;;19.69;63.85;97826.84;2087432;28;20082;-72
2022/11/20 01:13:36;;;;;;;1.20;0.80;;;;;;;19.72;64.24;97831.78;2088764;28;19932;-71
2022/11/20 01:14:13;;;;;;;2.17;0.88;;;;;;;19.71;64.34;97830.16;2091026;28;20128;-72
2022/11/20 01:15:13;;;;;;;1.23;0.77;;;;;;;19.73;63.74;97829.94;2093297;28;20102;-71
2022/11/20 01:16:16;;;;;;;;;;;;;;;19.62;64.06;97821.56;2089065;28;20052;-72
2022/11/20 01:17:16;;;;;;;6.15;1.15;;;;;;;19.68;64.39;97827.91;2085077;28;19920;-72
2022/11/20 01:18:18;;;;;;;;;;;;;;;19.60;64.21;97825.53;2088360;28;20052;-72
2022/11/20 01:19:22;;;;;;;3.58;1.35;;;;;;;19.65;64.05;97820.28;2087319;28;20452;-72
2022/11/20 01:20:23;;;;;;;5.30;1.15;;;;;;;19.69;64.16;97826.03;2087566;28;20124;-71
2022/11/20 01:21:25;;;;;;;;;;;;;;;19.59;64.61;97829.28;2092008;28;21456;-71
2022/11/20 01:22:26;;;;;;;6.55;1.20;;;;;;;19.63;64.12;97827.75;2087242;28;19924;-71
2022/11/20 01:23:27;;;;;;;;;;;;;;;19.57;64.46;97834.88;2091556;28;20050;-71
2022/11/20 01:24:29;;;;;;;2.83;0.82;;;;;;;19.62;64.15;97835.00;2087023;28;19921;-71
2022/11/20 01:25:30;;;;;;;2.80;1.20;;;;;;;19.67;64.37;97837.03;2088255;28;20047;-73
2022/11/20 01:26:32;;;;;;;;;;;;;;;19.58;64.23;97827.63;2087641;28;20549;-71
2022/11/20 01:27:33;;;;;;;5.15;0.70;;;;;;;19.61;64.13;97835.22;2090504;28;20058;-72
2022/11/20 01:28:36;;;;;;;;;;;;;;;19.52;64.49;97831.22;2091079;28;20063;-71
2022/11/20 01:29:37;;;;;;;2.30;0.80;;;;;;;19.57;64.36;97829.50;2089045;28;20017;-71
2022/11/20 01:30:38;;;;;;;;;;;;;;;19.51;64.68;97832.28;2088781;28;20103;-72
2022/11/20 01:31:39;;;;;;;3.88;0.93;;;;;;;19.55;64.32;97828.88;2085990;28;19928;-72
2022/11/20 01:32:41;;;;;;;4.45;1.15;;;;;;;19.61;64.23;97832.53;2088648;28;20494;-71
2022/11/20 01:33:43;;;;;;;2.45;1.05;;;;;;;19.62;64.21;97823.44;2087702;28;20123;-73
2022/11/20 01:34:45;;;;;;;7.20;1.17;;;;;;;19.64;64.43;97821.34;2088507;28;20059;-71
2022/11/20 01:35:46;;;;;;;5.78;1.60;;;;;;;19.66;64.09;97821.94;2087420;28;20056;-71
2022/11/20 01:36:48;;;;;;;;;;;;;;;19.53;64.42;97820.25;2093080;28;20834;-71
2022/11/20 01:37:50;;;;;;;6.50;1.33;;;;;;;19.57;64.37;97823.28;2094375;28;19970;-71
2022/11/20 01:38:52;;;;;;;2.40;0.98;;;;;;;19.59;64.33;97815.81;2093598;28;20562;-71
2022/11/20 01:39:53;;;;;;;6.32;1.75;;;;;;;19.61;64.07;97819.94;2093414;28;20131;-71
2022/11/20 01:40:55;;;;;;;;;;;;;;;19.48;64.67;97820.13;2094325;28;20045;-71
2022/11/20 01:43:21;;;;;;;1.88;0.88;;;;;;;19.54;64.55;97829.13;2093784;28;20036;-72
2022/11/20 01:44:47;;;;;;;1.95;0.90;;;;;;;19.53;64.34;97833.69;2093039;28;20061;-71
2022/11/20 01:45:59;;;;;;;1.30;1.08;;;;;;;19.52;64.65;97821.28;2093252;28;20151;-72
2022/11/20 01:47:02;;;;;;;2.17;0.80;;;;;;;19.54;64.65;97829.94;2092830;28;20079;-72
2022/11/20 01:48:04;;;;;;;1.58;0.90;;;;;;;19.55;64.36;97822.69;2094626;28;20041;-72
2022/11/20 01:49:10;;;;;;;1.80;0.82;;;;;;;19.57;64.50;97828.69;2093413;28;20514;-71
2022/11/20 01:50:17;;;;;;;1.38;0.70;;;;;;;19.57;64.59;97828.69;2093363;28;20049;-71
2022/11/20 01:51:29;;;;;;;0.82;0.50;;;;;;;19.55;64.46;97826.19;2090744;28;20117;-71
2022/11/20 01:52:37;;;;;;;1.95;0.68;;;;;;;19.54;64.68;97824.56;2088068;28;20175;-72
2022/11/20 01:53:37;;;;;;;1.40;0.88;;;;;;;19.52;64.58;97826.66;2087651;28;20052;-71
2022/11/20 01:54:43;;;;;;;;;;;;;;;19.42;64.84;97832.59;2090034;28;20044;-71
2022/11/20 01:55:51;;;;;;;1.30;0.57;;;;;;;19.46;64.43;97832.16;2087509;28;19936;-71
2022/11/20 01:56:57;;;;;;;1.75;1.30;;;;;;;19.50;64.60;97833.31;2085826;28;20041;-71
2022/11/20 01:57:59;;;;;;;5.25;0.80;;;;;;;19.51;64.20;97832.28;2088572;28;20052;-72
2022/11/20 01:59:05;;;;;;;3.75;0.80;;;;;;;19.52;64.16;97833.91;2088171;28;21059;-71
2022/11/20 02:00:10;;;;;;;2.85;1.48;;;;;;;19.50;64.59;97834.16;2090815;28;20465;-71
2022/11/20 02:01:14;;;;;;;1.73;0.85;;;;;;;19.53;64.22;97838.22;2090085;28;20052;-71
2022/11/20 02:02:15;;;;;;;1.55;0.90;;;;;;;19.52;64.42;97840.09;2090279;28;20044;-71
2022/11/20 02:03:18;;;;;;;;;;;;;;;19.39;64.73;97845.69;2092637;28;20048;-72
2022/11/20 02:04:20;;;;;;;3.30;1.15;;;;;;;19.41;64.67;97841.69;2091555;28;19920;-73
2022/11/20 02:05:28;;;;;;;0.73;0.55;;;;;;;19.45;64.50;97847.47;2082116;28;20059;-72
2022/11/20 02:06:36;;;;;;;0.95;0.70;;;;;;;19.47;64.39;97855.28;2089275;28;20079;-72
2022/11/20 02:07:38;;;;;;;1.73;0.80;;;;;;;19.46;64.24;97854.47;2091557;28;20423;-71
2022/11/20 02:08:40;;;;;;;2.08;0.70;;;;;;;19.45;64.38;97854.72;2085735;28;20044;-71
2022/11/20 02:09:41;;;;;;;1.90;0.70;;;;;;;19.46;64.61;97862.53;2091019;28;20048;-71
2022/11/20 02:10:42;;;;;;;;;;;;;;;19.33;64.71;97866.22;2088827;28;20044;-73
2022/11/20 02:11:44;;;;;;;;;;;;;;;19.23;65.05;97865.97;2087212;28;20334;-72
2022/11/20 02:14:04;;;;;;;0.70;0.52;;;;;;;19.37;64.85;97869.28;2080754;28;20049;-72
2022/11/20 02:15:05;;;;;;;;;;;;;;;19.26;64.87;97870.88;2086854;28;20052;-71
2022/11/20 02:16:13;;;;;;;3.15;1.00;;;;;;;19.32;64.60;97866.47;2090795;28;19971;-71
2022/11/20 02:17:14;;;;;;;1.65;0.50;;;;;;;19.35;64.71;97869.50;2092843;28;20045;-71
2022/11/20 02:18:17;;;;;;;;;;;;;;;19.26;64.70;97870.88;2090505;28;20529;-72
2022/11/20 02:19:23;;;;;;;1.95;1.23;;;;;;;19.31;64.53;97867.53;2086699;28;20791;-71
2022/11/20 02:20:25;;;;;;;1.15;0.63;;;;;;;19.33;64.68;97868.91;2086419;28;20120;-71
2022/11/20 02:21:33;;;;;;;1.23;1.13;;;;;;;19.36;64.73;97871.16;2091066;28;20136;-71
2022/11/20 02:22:43;;;;;;;2.30;0.80;;;;;;;19.36;64.60;97871.16;2091300;28;21861;-71
2022/11/20 02:23:58;;;;;;;3.80;0.98;;;;;;;19.34;64.41;97875.13;2086408;28;20471;-71
2022/11/20 02:25:03;;;;;;;3.92;1.10;;;;;;;19.36;64.37;97865.78;2089337;28;20045;-72
2022/11/20 02:26:08;;;;;;;1.08;0.65;;;;;;;19.36;64.53;97868.47;2088248;28;20079;-71
2022/11/20 02:27:14;;;;;;;0.95;0.60;;;;;;;19.35;64.29;97866.81;2086453;28;20056;-72
2022/11/20 02:28:16;;;;;;;2.22;0.98;;;;;;;19.35;64.66;97864.13;2087608;28;20067;-72
2022/11/20 02:29:24;;;;;;;0.80;0.70;;;;;;;19.34;64.49;97864.38;2084954;28;20122;-72
2022/11/20 02:30:25;;;;;;;4.65;1.05;;;;;;;19.35;64.21;97861.44;2087617;28;20708;-72
2022/11/20 02:31:26;;;;;;;;;;;;;;;19.23;64.66;97863.25;2085013;28;20049;-71
2022/11/20 02:32:31;;;;;;;0.52;0.52;;;;;;;19.25;64.88;97858.50;2085229;28;19920;-72
2022/11/20 02:33:32;;;;;;;1.73;0.60;;;;;;;19.29;64.84;97864.22;2088498;28;20151;-71
2022/11/20 02:34:33;;;;;;;;;;;;;;;19.17;65.05;97856.94;2088673;28;21340;-71
2022/11/20 02:35:43;;;;;;;1.30;0.60;;;;;;;19.19;65.01;97868.28;2087733;28;19928;-71
2022/11/20 02:36:45;;;;;;;1.10;0.40;;;;;;;19.24;64.72;97864.09;2090917;28;20121;-73
2022/11/20 02:37:48;;;;;;;2.13;1.17;;;;;;;19.28;64.49;97867.94;2085162;28;20438;-71
2022/11/20 02:38:50;;;;;;;0.60;0.55;;;;;;;19.30;64.67;97863.97;2086078;28;20553;-71
2022/11/20 02:39:53;;;;;;;1.05;0.70;;;;;;;19.31;64.63;97862.97;2090126;28;20508;-71
2022/11/20 02:40:54;;;;;;;4.47;0.75;;;;;;;19.29;64.47;97858.84;2085754;28;20113;-71
2022/11/20 02:41:56;;;;;;;;;;;;;;;19.18;64.89;97855.88;2088540;28;20056;-72
2022/11/20 02:42:57;;;;;;;0.52;0.50;;;;;;;19.20;64.69;97856.47;2085072;28;20024;-72
2022/11/20 02:43:59;;;;;;;;;;;;;;;19.13;64.70;97861.09;2088294;28;20544;-72
2022/11/20 02:44:59;;;;;;;;;;;;;;;19.04;65.08;97856.25;2088372;28;20004;-72
2022/11/20 02:46:01;;;;;;;1.63;0.97;;;;;;;19.12;65.30;97864.84;2088712;28;19928;-72
2022/11/20 02:47:02;;;;;;;1.30;0.77;;;;;;;19.18;64.71;97863.13;2084314;28;22243;-71
2022/11/20 02:48:04;;;;;;;;;;;;;;;19.08;64.83;97857.44;2088397;28;20059;-71
2022/11/20 02:49:06;;;;;;;1.77;0.50;;;;;;;19.18;65.04;97860.44;2086813;28;20374;-71
2022/11/20 02:50:07;;;;;;;1.25;0.70;;;;;;;19.20;64.96;97863.72;2088067;28;20102;-71
2022/11/20 02:51:09;;;;;;;0.75;0.40;;;;;;;19.23;64.36;97860.56;2087740;28;20589;-72
2022/11/20 02:52:10;;;;;;;1.15;0.70;;;;;;;19.22;64.58;97858.91;2087418;28;20055;-71
2022/11/20 02:53:11;;;;;;;;;;;;;;;19.12;64.92;97858.66;2088841;28;20129;-72
2022/11/20 02:54:12;;;;;;;1.50;0.73;;;;;;;19.14;64.69;97856.56;2088164;28;19924;-71
2022/11/20 02:55:15;;;;;;;;;;;;;;;19.05;64.88;97853.34;2086431;28;20510;-72
2022/11/20 02:56:16;;;;;;;0.93;0.70;;;;;;;19.10;64.82;97855.34;2089071;28;19935;-72
2022/11/20 02:57:17;;;;;;;;;;;;;;;19.03;65.29;97854.59;2087849;28;20207;-72
2022/11/20 02:58:18;;;;;;;0.32;0.30;;;;;;;19.05;64.85;97853.34;2086794;28;19929;-72
2022/11/20 02:59:20;;;;;;;;;;;;;;;19.00;65.08;97855.06;2091000;28;20618;-72
2022/11/20 03:00:21;;;;;;;1.55;0.40;;;;;;;19.05;65.19;97847.97;2088317;28;19924;-73
2022/11/20 03:01:22;;;;;;;;;;;;;;;18.99;65.26;97856.94;2089169;28;20143;-72
2022/11/20 03:02:23;;;;;;;;;;;;;;;18.95;65.14;97848.50;2089281;28;19982;-72
2022/11/20 03:03:25;;;;;;;1.23;0.73;;;;;;;19.02;65.11;97851.09;2087741;28;20306;-72
2022/11/20 03:04:25;;;;;;;0.77;0.70;;;;;;;19.09;64.98;97859.09;2089965;28;20053;-72
2022/11/20 03:05:27;;;;;;;;;;;;;;;19.02;64.81;97861.03;2087914;28;20133;-69
2022/11/20 03:06:29;;;;;;;1.75;0.65;;;;;;;19.05;65.20;97858.72;2088436;28;19924;-68
2022/11/20 03:07:30;;;;;;;1.55;0.77;;;;;;;19.10;64.78;97858.88;2087180;28;20140;-70
2022/11/20 03:08:31;;;;;;;;;;;;;;;19.02;64.80;97858.34;2088456;28;20155;-70
2022/11/20 03:09:32;;;;;;;0.80;0.50;;;;;;;19.06;65.19;97859.56;2090029;28;19970;-72
2022/11/20 03:10:35;;;;;;;;;;;;;;;18.99;65.09;97856.94;2089320;28;20049;-71
2022/11/20 03:11:35;;;;;;;2.30;1.10;;;;;;;19.06;64.85;97859.56;2085459;28;20077;-71
2022/11/20 03:12:37;;;;;;;;;;;;;;;18.96;65.09;97852.81;2089198;28;20048;-72
2022/11/20 03:13:38;;;;;;;0.98;0.52;;;;;;;19.01;64.96;97848.66;2086921;28;19928;-69
2022/11/20 03:14:39;;;;;;;3.17;0.55;;;;;;;19.05;64.93;97847.16;2086240;28;20654;-71
2022/11/20 03:15:40;;;;;;;3.58;0.90;;;;;;;19.09;64.63;97845.66;2090872;28;20087;-71
2022/11/20 03:16:42;;;;;;;;;;;;;;;18.98;64.78;97842.69;2087718;28;20060;-69
2022/11/20 03:17:42;;;;;;;1.23;0.60;;;;;;;19.05;64.67;97849.84;2086806;28;20067;-68
2022/11/20 03:18:44;;;;;;;;;;;;;;;18.96;64.97;97847.44;2086744;28;20048;-71
2022/11/20 03:19:44;;;;;;;0.60;0.60;;;;;;;19.00;64.91;97847.84;2086638;28;19936;-71
2022/11/20 03:20:46;;;;;;;0.45;0.45;;;;;;;19.04;64.78;97848.19;2088764;28;20056;-73
2022/11/20 03:21:47;;;;;;;0.77;0.77;;;;;;;19.07;64.55;97851.25;2084769;28;20514;-71
2022/11/20 03:22:49;;;;;;;;;;;;;;;18.98;64.74;97847.25;2087513;28;20056;-71
2022/11/20 03:23:49;;;;;;;2.25;0.82;;;;;;;19.01;64.60;97846.78;2087250;28;20411;-72
2022/11/20 03:24:51;;;;;;;;;;;;;;;18.92;65.09;97843.59;2090160;28;20135;-72
2022/11/20 03:25:54;;;;;;;1.25;0.52;;;;;;;18.96;64.91;97850.13;2090240;28;20462;-72
2022/11/20 03:26:55;;;;;;;3.95;1.00;;;;;;;19.02;64.58;97853.78;2082534;28;20055;-73
2022/11/20 03:27:56;;;;;;;1.50;0.68;;;;;;;19.07;64.76;97858.50;2091912;28;20056;-72
2022/11/20 03:28:58;;;;;;;;;;;;;;;18.95;64.71;97853.88;2089180;28;20074;-72
2022/11/20 03:29:59;;;;;;;1.08;0.63;;;;;;;18.98;64.82;97852.63;2090660;28;19928;-71
2022/11/20 03:31:06;;;;;;;;;;;;;;;18.90;64.77;97850.22;2088574;28;20129;-72
2022/11/20 03:32:07;;;;;;;1.75;0.90;;;;;;;18.94;64.89;97844.19;2089612;28;20129;-72
2022/11/20 03:33:09;;;;;;;2.83;0.63;;;;;;;19.01;64.53;97845.97;2088062;28;20743;-71
2022/11/20 03:34:11;;;;;;;1.58;0.85;;;;;;;19.04;64.60;97848.19;2088601;28;20048;-72
2022/11/20 03:35:13;;;;;;;1.10;0.50;;;;;;;19.07;64.71;97845.06;2088900;28;20045;-72
2022/11/20 03:36:16;;;;;;;2.15;0.77;;;;;;;19.05;64.66;97847.97;2089914;28;20062;-71
2022/11/20 03:37:18;;;;;;;0.45;0.40;;;;;;;19.06;64.57;97851.50;2089810;28;20511;-72
2022/11/20 03:38:18;;;;;;;1.15;0.55;;;;;;;19.06;64.35;97854.19;2087366;28;20059;-72
2022/11/20 03:39:20;;;;;;;;;;;;;;;18.94;64.45;97854.09;2089170;28;20052;-71
2022/11/20 03:40:21;;;;;;;2.22;0.55;;;;;;;18.95;64.74;97856.56;2092500;28;19921;-71
2022/11/20 03:41:24;;;;;;;;;;;;;;;18.84;65.11;97860.00;2091564;28;20163;-72
2022/11/20 03:43:48;;;;;;;0.90;0.50;;;;;;;18.95;64.72;97864.63;2087259;28;20044;-72
2022/11/20 03:44:49;;;;;;;0.75;0.50;;;;;;;18.97;64.71;97862.53;2089526;28;20569;-72
2022/11/20 03:45:50;;;;;;;;;;;;;;;18.88;64.85;97869.25;2088950;28;20067;-71
2022/11/20 03:46:51;;;;;;;0.68;0.68;;;;;;;18.92;64.98;97867.78;2088910;28;19966;-72
2022/11/20 03:47:52;;;;;;;;;;;;;;;18.85;64.88;97872.38;2090541;28;20056;-73
2022/11/20 03:48:54;;;;;;;0.98;0.80;;;;;;;18.88;64.98;97866.56;2089289;28;20384;-71
2022/11/20 03:49:55;;;;;;;2.42;0.50;;;;;;;18.94;64.73;97870.22;2094524;28;20158;-72
2022/11/20 03:51:07;;;;;;;1.10;0.55;;;;;;;18.94;64.68;97876.44;2089612;28;20064;-72
2022/11/20 03:52:09;;;;;;;0.82;0.50;;;;;;;18.96;64.74;97868.94;2089119;28;20064;-71
2022/11/20 03:53:10;;;;;;;1.00;0.77;;;;;;;18.98;64.57;97858.81;2090071;28;20506;-72
2022/11/20 03:54:12;;;;;;;1.02;0.40;;;;;;;18.97;64.38;97865.22;2085982;28;20052;-72
2022/11/20 03:55:13;;;;;;;1.30;0.68;;;;;;;18.96;64.45;97865.44;2089429;28;21015;-71
2022/11/20 03:56:16;;;;;;;;;;;;;;;18.85;64.64;97864.31;2088488;28;20058;-72
2022/11/20 03:57:18;;;;;;;1.15;0.73;;;;;;;18.88;64.70;97857.69;2090049;28;20363;-72
2022/11/20 03:58:20;;;;;;;0.82;0.60;;;;;;;18.91;64.68;97862.59;2087430;28;20151;-71
2022/11/20 03:59:20;;;;;;;1.55;0.77;;;;;;;18.93;64.86;97861.34;2088467;28;20499;-72
2022/11/20 04:00:22;;;;;;;;;;;;;;;18.84;64.67;97857.31;2087716;28;20045;-72
2022/11/20 04:01:25;;;;;;;;;;;;;;;18.75;64.97;97858.66;2087509;28;19924;-72
2022/11/20 04:02:26;;;;;;;1.73;0.82;;;;;;;18.82;64.88;97861.28;2092618;28;19920;-71
2022/11/20 04:03:27;;;;;;;0.95;0.55;;;;;;;18.87;64.63;97866.78;2094084;28;20597;-72
2022/11/20 04:04:28;;;;;;;;;;;;;;;18.79;64.77;97865.22;2090410;28;20052;-71
2022/11/20 04:05:29;;;;;;;2.63;0.50;;;;;;;18.82;65.18;97856.72;2087269;28;22129;-72
2022/11/20 04:06:34;;;;;;;;;;;;;;;18.73;65.13;97872.28;2087960;28;20053;-72
2022/11/20 04:07:35;;;;;;;2.33;0.82;;;;;;;18.79;64.93;97875.97;2088765;28;19928;-73
2022/11/20 04:08:37;;;;;;;1.23;0.77;;;;;;;18.85;64.90;97867.00;2089526;28;20045;-71
2022/11/20 04:09:38;;;;;;;1.02;0.60;;;;;;;18.88;64.46;97871.94;2088011;28;20052;-72
2022/11/20 04:10:39;;;;;;;;;;;;;;;18.77;64.91;97872.69;2094872;28;20044;-72
2022/11/20 04:11:40;;;;;;;;;;;;;;;18.70;65.24;97879.97;2088052;28;19936;-72
2022/11/20 04:12:43;;;;;;;1.02;0.70;;;;;;;18.76;64.98;97873.72;2090966;28;20342;-72
2022/11/20 04:13:47;;;;;;;2.47;0.73;;;;;;;18.84;64.83;97873.44;2088675;28;20064;-71
2022/11/20 04:14:49;;;;;;;1.35;0.75;;;;;;;18.87;64.46;97878.34;2089355;28;20061;-72
2022/11/20 04:15:50;;;;;;;1.13;0.60;;;;;;;18.87;64.51;97878.34;2089208;28;20045;-72
2022/11/20 04:16:52;;;;;;;;;;;;;;;18.77;64.95;97878.03;2091155;28;20455;-71
2022/11/20 04:17:54;;;;;;;2.40;0.70;;;;;;;18.80;64.80;97874.09;2088551;28;19928;-72
2022/11/20 04:18:59;;;;;;;1.83;0.60;;;;;;;18.82;64.57;97872.84;2088297;28;20160;-72
2022/11/20 04:20:00;;;;;;;3.33;0.60;;;;;;;18.84;64.89;97875.31;2092351;28;20082;-72
2022/11/20 04:21:03;;;;;;;2.78;0.65;;;;;;;18.87;64.59;97870.31;2085672;28;20101;-72
2022/11/20 04:22:05;;;;;;;0.77;0.63;;;;;;;18.88;64.33;97873.81;2088617;28;20418;-72
2022/11/20 04:23:06;;;;;;;1.30;0.88;;;;;;;18.87;64.32;97873.00;2088312;28;20053;-73
2022/11/20 04:24:07;;;;;;;;;;;;;;;18.74;64.69;97867.75;2089470;28;20048;-72
2022/11/20 04:25:08;;;;;;;;;;;;;;;18.67;65.08;97872.34;2088954;28;19921;-72
2022/11/20 04:26:12;;;;;;;0.60;0.43;;;;;;;18.72;65.02;97865.28;2090860;28;19924;-72
2022/11/20 04:27:13;;;;;;;0.88;0.82;;;;;;;18.76;64.80;97868.34;2088726;28;20120;-72
2022/11/20 04:28:16;;;;;;;;;;;;;;;18.69;64.83;97870.25;2091732;28;20402;-72
2022/11/20 04:29:16;;;;;;;0.55;0.55;;;;;;;18.73;65.03;97860.72;2088647;28;19985;-72
2022/11/20 04:30:18;;;;;;;;;;;;;;;18.65;65.11;97861.00;2087552;28;20121;-72
2022/11/20 04:31:20;;;;;;;0.98;0.60;;;;;;;18.73;64.96;97866.09;2088266;28;20019;-72
2022/11/20 04:32:22;;;;;;;0.90;0.55;;;;;;;18.78;64.55;97860.06;2087772;28;20495;-72
2022/11/20 04:33:23;;;;;;;0.60;0.60;;;;;;;18.80;64.67;97863.34;2089916;28;20049;-72
2022/11/20 04:34:24;;;;;;;;;;;;;;;18.69;64.59;97859.50;2088963;28;20174;-71
2022/11/20 04:35:25;;;;;;;1.00;0.65;;;;;;;18.71;64.85;97860.94;2088087;28;19932;-72
2022/11/20 04:36:27;;;;;;;;;;;;;;;18.66;64.87;97868.00;2089186;28;20112;-72
2022/11/20 04:37:28;;;;;;;1.77;0.70;;;;;;;18.71;64.74;97862.78;2089249;28;19924;-72
2022/11/20 04:38:29;;;;;;;;;;;;;;;18.60;64.88;97867.03;2091779;28;20067;-72
2022/11/20 04:39:30;;;;;;;0.85;0.35;;;;;;;18.67;64.72;97867.00;2089553;28;20027;-72
2022/11/20 04:40:32;;;;;;;;;;;;;;;18.63;64.80;97865.78;2092879;28;20067;-71
2022/11/20 04:41:33;;;;;;;;;;;;;;;18.57;65.10;97870.16;2087704;28;19924;-72
2022/11/20 04:42:35;;;;;;;0.95;0.60;;;;;;;18.65;64.92;97863.69;2088676;28;20039;-72
2022/11/20 04:43:37;;;;;;;1.77;0.70;;;;;;;18.71;64.65;97868.16;2091484;28;20411;-71
2022/11/20 04:44:39;;;;;;;0.95;0.60;;;;;;;18.72;64.52;97873.34;2092558;28;20120;-72
2022/11/20 04:45:40;;;;;;;0.52;0.50;;;;;;;18.74;64.54;97873.94;2093087;28;20499;-72
2022/11/20 04:46:42;;;;;;;;;;;;;;;18.64;64.77;97873.63;2089654;28;20052;-73
2022/11/20 04:47:43;;;;;;;0.80;0.70;;;;;;;18.69;64.63;97870.25;2089541;28;20015;-72
2022/11/20 04:48:44;;;;;;;;;;;;;;;18.61;64.82;97867.84;2091220;28;20056;-73
2022/11/20 04:49:45;;;;;;;;;;;;;;;18.53;64.97;97872.47;2090560;28;19921;-71
2022/11/20 04:50:47;;;;;;;1.53;0.60;;;;;;;18.60;64.91;97869.72;2089287;28;20546;-72
2022/11/20 04:51:48;;;;;;;0.65;0.50;;;;;;;18.67;64.78;97867.81;2086867;28;20106;-71
2022/11/20 04:52:49;;;;;;;;;;;;;;;18.60;64.76;97874.28;2088764;28;20106;-72
2022/11/20 04:53:50;;;;;;;0.70;0.70;;;;;;;18.63;64.75;97871.97;2089791;28;19989;-72
2022/11/20 04:54:53;;;;;;;;;;;;;;;18.57;65.03;97875.53;2090097;28;20102;-71
2022/11/20 04:55:59;;;;;;;0.95;0.55;;;;;;;18.62;64.65;97864.97;2087750;28;20019;-72
2022/11/20 04:57:01;;;;;;;0.80;0.57;;;;;;;18.65;64.57;97867.19;2089185;28;20072;-72
2022/11/20 04:58:02;;;;;;;0.70;0.60;;;;;;;18.66;64.58;97865.31;2088921;28;20052;-71
2022/11/20 04:59:04;;;;;;;;;;;;;;;18.59;64.87;97869.97;2091421;28;20048;-72
2022/11/20 05:00:06;;;;;;;0.50;0.50;;;;;;;18.64;64.87;97872.81;2089159;28;20482;-71
2022/11/20 05:01:12;;;;;;;1.08;0.80;;;;;;;18.69;64.41;97881.00;2089378;28;22297;-71
2022/11/20 05:02:13;;;;;;;0.93;0.45;;;;;;;18.70;64.34;97877.28;2089499;28;20537;-71
2022/11/20 05:03:14;;;;;;;;;;;;;;;18.60;64.67;97879.66;2089114;28;20044;-72
2022/11/20 05:04:15;;;;;;;2.53;0.70;;;;;;;18.65;64.77;97885.19;2088895;28;20057;-71
2022/11/20 05:05:17;;;;;;;;;;;;;;;18.54;65.00;97884.03;2090335;28;20048;-69
2022/11/20 05:06:18;;;;;;;;;;;;;;;18.47;65.18;97888.63;2086612;28;20015;-73